Time;durP1;ratioP1;P1;durP2;ratioP2;P2;SDS_P1;SDS_P2;PMS_P1;PMS_P2;Temp;Humidity;BMP_temperature;BMP_pressure;BME280_temperature;BME280_humidity;BME280_pressure;Samples;Min_cycle;Max_cycle;Signal;HPM_P1;HPM_P2
2024/03/10 00:00:24;;;;;;;3.00;2.60;;;8.90;1.00;;;;;;5071972;28;20855;-71
2024/03/10 00:02:49;;;;;;;5.00;2.80;;;8.90;1.00;;;;;;5071761;28;20427;-72
2024/03/10 00:05:15;;;;;;;2.87;2.57;;;8.90;1.00;;;;;;5071691;28;20419;-71
2024/03/10 00:07:46;;;;;;;2.93;2.60;;;9.00;1.00;;;;;;5071658;28;20173;-72
2024/03/10 00:10:17;;;;;;;2.83;2.40;;;9.00;1.00;;;;;;5071446;28;20173;-72
2024/03/10 00:12:49;;;;;;;3.60;3.30;;;9.10;1.00;;;;;;5071745;28;20798;-72
2024/03/10 00:15:15;;;;;;;3.30;2.13;;;9.20;1.00;;;;;;5071170;28;20414;-71
2024/03/10 00:17:41;;;;;;;3.73;2.33;;;9.30;1.00;;;;;;5071766;28;20404;-71
2024/03/10 00:20:08;;;;;;;2.30;2.03;;;9.40;1.00;;;;;;5071590;28;20466;-71
2024/03/10 00:22:40;;;;;;;2.77;2.40;;;9.40;1.00;;;;;;5071444;28;20420;-70
2024/03/10 00:25:07;;;;;;;2.10;1.90;;;9.50;1.00;;;;;;5071479;28;20407;-71
2024/03/10 00:27:33;;;;;;;2.30;1.97;;;9.60;1.00;;;;;;5057314;28;20439;-72
2024/03/10 00:29:58;;;;;;;3.90;2.03;;;9.60;1.00;;;;;;5075840;28;20415;-72
2024/03/10 00:32:24;;;;;;;3.03;2.17;;;9.80;1.00;;;;;;5075449;28;20447;-72
2024/03/10 00:34:53;;;;;;;2.20;1.80;;;9.80;1.00;;;;;;5075453;28;20230;-72
2024/03/10 00:37:18;;;;;;;2.40;2.10;;;10.00;1.00;;;;;;5057626;28;20476;-71
2024/03/10 00:39:44;;;;;;;2.33;2.10;;;10.20;1.00;;;;;;5075612;28;20463;-71
2024/03/10 00:42:10;;;;;;;3.53;2.60;;;10.30;1.00;;;;;;5075742;28;20258;-71
2024/03/10 00:44:36;;;;;;;2.30;2.10;;;10.40;1.00;;;;;;5075025;28;20171;-72
2024/03/10 00:47:01;;;;;;;8.50;2.63;;;10.50;1.00;;;;;;5075401;28;20423;-72
2024/03/10 00:49:27;;;;;;;5.70;2.40;;;10.60;1.00;;;;;;5075350;28;20235;-72
2024/03/10 00:51:53;;;;;;;2.83;2.40;;;10.70;1.00;;;;;;5074977;28;20212;-71
2024/03/10 00:54:18;;;;;;;2.37;2.17;;;10.70;1.00;;;;;;5075050;28;20243;-71
2024/03/10 00:56:44;;;;;;;5.67;2.40;;;10.70;1.00;;;;;;5074894;28;20326;-71
2024/03/10 00:59:10;;;;;;;2.93;2.60;;;10.80;1.00;;;;;;5075001;28;20209;-72
2024/03/10 01:01:38;;;;;;;2.83;2.47;;;10.80;1.00;;;;;;5075128;28;20556;-71
2024/03/10 01:04:04;;;;;;;3.63;2.40;;;10.80;1.00;;;;;;5074887;28;20170;-70
2024/03/10 01:06:30;;;;;;;3.23;2.13;;;10.80;1.00;;;;;;5074633;28;20502;-73
2024/03/10 01:08:57;;;;;;;2.83;2.63;;;10.90;1.00;;;;;;5074849;28;20204;-70
2024/03/10 01:11:22;;;;;;;2.80;2.53;;;10.90;1.00;;;;;;5075297;28;20186;-70
2024/03/10 01:13:50;;;;;;;2.83;2.53;;;10.90;1.00;;;;;;5074750;28;20807;-69
2024/03/10 01:16:15;;;;;;;2.70;2.50;;;11.00;1.00;;;;;;5074766;28;20181;-69
2024/03/10 01:18:41;;;;;;;2.50;2.30;;;11.10;1.00;;;;;;5074582;28;20459;-69
2024/03/10 01:21:06;;;;;;;3.13;2.20;;;11.10;1.00;;;;;;5074495;28;20189;-68
2024/03/10 01:23:33;;;;;;;2.70;2.50;;;11.10;1.00;;;;;;5074501;28;20196;-69
2024/03/10 01:25:58;;;;;;;3.40;2.60;;;11.10;1.00;;;;;;5074178;28;20541;-70
2024/03/10 01:28:24;;;;;;;2.50;2.30;;;11.00;1.00;;;;;;5074552;28;20419;-70
2024/03/10 01:30:49;;;;;;;2.73;2.20;;;11.00;1.00;;;;;;5074569;28;20213;-71
2024/03/10 01:33:15;;;;;;;5.00;3.53;;;11.00;1.00;;;;;;5136441;22;20239;-68
2024/03/10 01:35:42;;;;;;;3.00;2.70;;;11.00;1.00;;;;;;5134811;27;20233;-69
2024/03/10 01:38:08;;;;;;;3.13;2.30;;;11.00;1.00;;;;;;5134452;27;20251;-69
2024/03/10 01:40:34;;;;;;;3.87;2.70;;;10.80;1.00;;;;;;5133433;27;20449;-69
2024/03/10 01:42:59;;;;;;;2.90;2.47;;;10.80;1.00;;;;;;5134654;27;20449;-69
2024/03/10 01:45:25;;;;;;;2.93;2.30;;;10.60;1.00;;;;;;5135305;27;20208;-72
2024/03/10 01:47:51;;;;;;;3.50;2.60;;;10.50;1.00;;;;;;5136316;27;20280;-68
2024/03/10 01:50:18;;;;;;;3.83;2.73;;;10.50;1.00;;;;;;5136481;27;20549;-67
2024/03/10 01:52:47;;;;;;;2.83;2.60;;;10.50;1.00;;;;;;5135176;27;20426;-68
2024/03/10 01:55:14;;;;;;;2.67;2.00;;;10.40;1.00;;;;;;5133488;27;20436;-67
2024/03/10 01:57:40;;;;;;;3.10;2.63;;;10.30;1.00;;;;;;5135410;27;20410;-69
2024/03/10 02:00:06;;;;;;;2.90;2.60;;;10.20;1.00;;;;;;5135446;27;20457;-68
2024/03/10 02:02:32;;;;;;;2.57;2.30;;;10.20;1.00;;;;;;5133760;27;20192;-69
2024/03/10 02:04:59;;;;;;;2.53;2.33;;;10.10;1.00;;;;;;5133775;27;21000;-69
2024/03/10 02:07:25;;;;;;;4.43;2.70;;;10.10;1.00;;;;;;5135108;27;20200;-69
2024/03/10 02:09:51;;;;;;;3.60;2.33;;;10.10;1.00;;;;;;5135300;27;20709;-68
2024/03/10 02:12:17;;;;;;;3.73;3.10;;;10.00;1.00;;;;;;5134822;27;20430;-68
2024/03/10 02:15:00;;;;;;;2.40;2.10;;;10.00;1.00;;;;;;5135057;27;20450;-68
2024/03/10 02:17:26;;;;;;;2.30;2.10;;;10.00;1.00;;;;;;5134924;27;20401;-68
2024/03/10 02:19:58;;;;;;;3.13;2.60;;;10.00;1.00;;;;;;5134426;27;20464;-70
2024/03/10 02:22:24;;;;;;;5.70;2.80;;;9.90;1.00;;;;;;5134637;27;20939;-68
2024/03/10 02:24:54;;;;;;;3.57;2.50;;;10.00;1.00;;;;;;5134488;27;20824;-70
2024/03/10 02:27:21;;;;;;;3.23;2.27;;;9.90;1.00;;;;;;5133454;27;20425;-70
2024/03/10 02:30:18;;;;;;;2.90;2.60;;;10.00;1.00;;;;;;5135008;27;20431;-70
2024/03/10 02:49:48;;;;;;;4.10;2.80;;;10.30;1.00;;;;;;5111832;28;20424;-70
2024/03/10 02:52:14;;;;;;;2.40;2.20;;;10.30;1.00;;;;;;5126249;27;20441;-69
2024/03/10 02:54:39;;;;;;;3.30;2.27;;;10.40;1.00;;;;;;5135615;27;20210;-69
2024/03/10 02:57:06;;;;;;;2.60;2.40;;;10.40;1.00;;;;;;5135807;27;20627;-69
2024/03/10 02:59:32;;;;;;;3.10;2.73;;;10.50;1.00;;;;;;5133814;27;20580;-69
2024/03/10 03:01:58;;;;;;;3.60;2.53;;;10.50;1.00;;;;;;5134320;27;20475;-69
2024/03/10 03:04:28;;;;;;;2.60;2.40;;;10.50;1.00;;;;;;5133819;27;20186;-70
2024/03/10 03:06:53;;;;;;;2.93;2.27;;;10.50;1.00;;;;;;5133301;27;20406;-68
2024/03/10 03:09:23;;;;;;;3.00;2.70;;;10.60;1.00;;;;;;5133509;27;20413;-68
2024/03/10 03:11:49;;;;;;;2.33;2.13;;;10.60;1.00;;;;;;5133139;27;20176;-69
2024/03/10 03:14:15;;;;;;;2.90;2.70;;;10.60;1.00;;;;;;5131903;27;20413;-69
2024/03/10 03:16:44;;;;;;;2.97;2.77;;;10.50;1.00;;;;;;5133204;27;20196;-69
2024/03/10 03:19:13;;;;;;;3.23;3.03;;;10.50;1.00;;;;;;5133296;27;20328;-69
2024/03/10 03:21:39;;;;;;;3.20;2.60;;;10.40;1.00;;;;;;5133790;27;20732;-68
2024/03/10 03:24:07;;;;;;;3.60;2.50;;;10.50;1.00;;;;;;5133469;27;20905;-69
2024/03/10 03:26:33;;;;;;;2.70;2.50;;;10.50;1.00;;;;;;5133175;27;20401;-69
2024/03/10 03:28:59;;;;;;;2.70;2.50;;;10.50;1.00;;;;;;5133899;27;20413;-69
2024/03/10 03:31:25;;;;;;;2.50;2.30;;;10.60;1.00;;;;;;5133764;27;20499;-69
2024/03/10 03:33:52;;;;;;;2.30;2.10;;;10.60;1.00;;;;;;5133372;27;20257;-68
2024/03/10 03:36:19;;;;;;;2.67;2.47;;;10.60;1.00;;;;;;5131348;27;20263;-69
2024/03/10 03:38:45;;;;;;;2.63;2.43;;;10.50;1.00;;;;;;5132929;27;20461;-68
2024/03/10 03:41:11;;;;;;;2.47;2.27;;;10.40;1.00;;;;;;5132536;27;20410;-69
2024/03/10 03:43:36;;;;;;;2.77;2.13;;;10.50;1.00;;;;;;5132046;27;20199;-68
2024/03/10 03:46:04;;;;;;;2.67;2.47;;;10.50;1.00;;;;;;5131988;27;20401;-70
2024/03/10 03:48:30;;;;;;;2.70;2.43;;;10.50;1.00;;;;;;5132138;27;20176;-69
2024/03/10 03:50:56;;;;;;;2.50;2.30;;;10.40;1.00;;;;;;5132190;27;20418;-69
2024/03/10 03:53:21;;;;;;;2.60;2.40;;;10.30;1.00;;;;;;5132274;27;20481;-69
2024/03/10 03:55:47;;;;;;;2.67;2.30;;;10.20;1.00;;;;;;5132219;27;20295;-70
2024/03/10 03:58:12;;;;;;;2.57;2.37;;;10.10;1.00;;;;;;5132567;27;20183;-70
2024/03/10 04:00:38;;;;;;;2.90;2.70;;;10.00;1.00;;;;;;5132277;27;20171;-69
2024/03/10 04:03:03;;;;;;;2.60;2.40;;;9.90;1.00;;;;;;5132153;27;20213;-71
2024/03/10 04:05:29;;;;;;;2.73;2.27;;;9.80;1.00;;;;;;5131929;27;20562;-69
2024/03/10 04:07:54;;;;;;;2.27;2.07;;;9.70;1.00;;;;;;5132413;27;20279;-70
2024/03/10 04:10:20;;;;;;;2.63;2.27;;;9.60;1.00;;;;;;5132475;27;20176;-70
2024/03/10 04:12:47;;;;;;;3.10;2.13;;;9.60;1.00;;;;;;5130636;27;20294;-70
2024/03/10 04:15:12;;;;;;;2.93;2.00;;;9.50;1.00;;;;;;5132088;28;20406;-70
2024/03/10 04:17:38;;;;;;;2.80;2.60;;;9.40;1.00;;;;;;5132135;28;20404;-68
2024/03/10 04:20:12;;;;;;;2.87;2.30;;;9.40;1.00;;;;;;5132039;28;20200;-69
2024/03/10 04:22:39;;;;;;;2.50;2.03;;;9.30;1.00;;;;;;5130715;28;20194;-68
2024/03/10 04:25:09;;;;;;;2.53;2.07;;;9.30;1.00;;;;;;5131988;28;20404;-69
2024/03/10 04:27:35;;;;;;;2.70;2.50;;;9.30;1.00;;;;;;5132141;28;20922;-70
2024/03/10 04:30:04;;;;;;;2.27;1.90;;;9.30;1.00;;;;;;5132991;28;20413;-69
2024/03/10 04:32:30;;;;;;;2.50;2.27;;;;;;;;;;5130443;28;20247;-71
2024/03/10 04:34:56;;;;;;;2.77;2.20;;;9.10;1.00;;;;;;5130404;28;20432;-70
2024/03/10 04:37:22;;;;;;;3.73;2.47;;;9.00;1.00;;;;;;5132471;28;20412;-71
2024/03/10 04:39:48;;;;;;;5.37;3.30;;;8.90;1.00;;;;;;5132267;28;20453;-70
2024/03/10 04:42:15;;;;;;;3.73;2.53;;;8.70;1.00;;;;;;5131990;28;20794;-72
2024/03/10 04:44:41;;;;;;;3.57;2.87;;;;;;;;;;5131881;28;20174;-70
2024/03/10 04:47:07;;;;;;;4.43;2.80;;;8.50;1.00;;;;;;5130928;28;20400;-69
2024/03/10 04:49:33;;;;;;;5.03;2.60;;;8.50;1.00;;;;;;5132392;28;20416;-69
2024/03/10 04:52:00;;;;;;;4.17;2.20;;;8.40;1.00;;;;;;5132332;28;20453;-70
2024/03/10 04:54:26;;;;;;;2.83;2.23;;;8.30;1.00;;;;;;5132173;28;20405;-69
2024/03/10 04:56:52;;;;;;;2.93;2.23;;;8.30;1.00;;;;;;5132615;28;20423;-70
2024/03/10 04:59:18;;;;;;;4.13;2.23;;;8.20;1.00;;;;;;5131784;28;20475;-69
2024/03/10 05:01:43;;;;;;;4.37;2.67;;;8.20;1.00;;;;;;5131854;28;20415;-69
2024/03/10 05:04:09;;;;;;;4.53;2.77;;;8.10;1.00;;;;;;5131912;28;20708;-69
2024/03/10 05:06:35;;;;;;;3.47;2.00;;;8.10;1.00;;;;;;5131781;28;20511;-68
2024/03/10 05:09:00;;;;;;;3.47;2.43;;;8.00;1.00;;;;;;5131870;28;20572;-70
2024/03/10 05:11:26;;;;;;;4.33;2.20;;;8.00;1.00;;;;;;5131916;27;20178;-68
2024/03/10 05:13:51;;;;;;;3.03;2.07;;;8.00;1.00;;;;;;5133914;27;20199;-68
2024/03/10 05:16:17;;;;;;;2.90;2.00;;;8.00;1.00;;;;;;5135569;27;20215;-68
2024/03/10 05:18:43;;;;;;;2.40;1.70;;;8.00;1.00;;;;;;5136070;27;20236;-70
2024/03/10 05:21:09;;;;;;;2.30;1.73;;;8.50;1.00;;;;;;5136839;27;20209;-70
2024/03/10 05:23:34;;;;;;;2.53;2.10;;;9.00;1.00;;;;;;5137166;27;20237;-69
2024/03/10 05:26:00;;;;;;;5.20;2.43;;;9.10;1.00;;;;;;5135938;27;20262;-69
2024/03/10 05:28:26;;;;;;;3.77;2.23;;;9.10;1.00;;;;;;5134462;27;20311;-70
2024/03/10 05:30:52;;;;;;;4.17;3.00;;;8.90;1.00;;;;;;5135378;27;20414;-69
2024/03/10 05:33:18;;;;;;;3.00;1.90;;;8.50;1.00;;;;;;5135943;27;20628;-69
2024/03/10 05:35:44;;;;;;;2.30;2.10;;;8.30;1.00;;;;;;5136437;27;20511;-69
2024/03/10 05:38:10;;;;;;;3.10;2.00;;;8.10;1.00;;;;;;5135321;27;20192;-69
2024/03/10 05:40:35;;;;;;;3.27;2.50;;;7.90;1.00;;;;;;5136372;27;20972;-69
2024/03/10 05:43:01;;;;;;;2.97;2.13;;;7.80;1.00;;;;;;5135660;27;20191;-69
2024/03/10 05:45:27;;;;;;;3.37;2.40;;;7.70;1.00;;;;;;5135953;27;20181;-67
2024/03/10 05:47:53;;;;;;;2.40;2.10;;;7.60;1.00;;;;;;5135297;27;20657;-68
2024/03/10 05:50:19;;;;;;;3.93;2.60;;;7.60;1.00;;;;;;5133616;27;20179;-68
2024/03/10 05:52:46;;;;;;;2.80;2.10;;;7.70;1.00;;;;;;5135473;27;20464;-71
2024/03/10 05:55:12;;;;;;;3.30;2.67;;;7.80;1.00;;;;;;5135778;27;20427;-69
2024/03/10 05:57:41;;;;;;;2.40;2.00;;;7.70;1.00;;;;;;5137452;27;20724;-67
2024/03/10 06:00:13;;;;;;;3.00;2.30;;;7.70;1.00;;;;;;5137973;27;20194;-68
2024/03/10 06:02:45;;;;;;;3.30;2.13;;;7.70;1.00;;;;;;5137379;27;20498;-67
2024/03/10 06:05:13;;;;;;;3.20;2.30;;;7.70;1.00;;;;;;5135869;27;20412;-68
2024/03/10 06:07:40;;;;;;;1.63;1.20;;;7.70;1.00;;;;;;5134740;27;20426;-68
2024/03/10 06:10:06;;;;;;;1.77;1.43;;;7.90;1.00;;;;;;5135536;27;20486;-68
2024/03/10 06:12:33;;;;;;;2.73;2.00;;;8.20;1.00;;;;;;5135073;27;20436;-67
2024/03/10 06:14:58;;;;;;;2.10;1.70;;;8.80;1.00;;;;;;5135587;27;20171;-68
2024/03/10 06:17:30;;;;;;;2.30;1.83;;;9.10;1.00;;;;;;5143316;27;20420;-72
2024/03/10 06:25:28;;;;;;;1.97;1.77;;;10.10;1.00;;;;;;5148002;27;20475;-69
2024/03/10 06:27:57;;;;;;;2.33;1.80;;;9.60;1.00;;;;;;5144468;27;20419;-68
2024/03/10 06:30:23;;;;;;;2.10;1.90;;;9.80;1.00;;;;;;5140042;27;20182;-68
2024/03/10 06:32:50;;;;;;;2.40;2.00;;;9.90;1.00;;;;;;5134802;27;21050;-70
2024/03/10 06:35:19;;;;;;;3.17;2.10;;;10.00;1.00;;;;;;5133772;27;20413;-68
2024/03/10 06:37:48;;;;;;;3.13;2.33;;;9.60;1.00;;;;;;5134596;27;20428;-69
2024/03/10 06:40:14;;;;;;;3.43;2.20;;;9.40;1.00;;;;;;5132554;27;20468;-70
2024/03/10 06:42:39;;;;;;;3.50;2.47;;;9.10;1.00;;;;;;5132887;27;20441;-69
2024/03/10 06:45:05;;;;;;;3.90;3.27;;;9.10;1.00;;;;;;5131681;27;20172;-68
2024/03/10 06:47:31;;;;;;;2.60;1.90;;;9.00;1.00;;;;;;5124632;27;20176;-68
2024/03/10 06:49:57;;;;;;;5.13;4.20;;;9.00;1.00;;;;;;5115900;27;20444;-68
2024/03/10 06:52:22;;;;;;;3.10;2.77;;;8.90;1.00;;;;;;5128095;27;20198;-68
2024/03/10 06:54:48;;;;;;;2.20;2.00;;;8.90;1.00;;;;;;5134429;27;20213;-70
2024/03/10 06:57:14;;;;;;;2.50;2.00;;;8.90;1.00;;;;;;5134353;27;20655;-68
2024/03/10 06:59:41;;;;;;;2.27;1.50;;;9.10;1.00;;;;;;5134147;27;20206;-69
2024/03/10 07:02:11;;;;;;;2.03;1.50;;;9.20;1.00;;;;;;5134169;27;20230;-69
2024/03/10 07:04:38;;;;;;;3.30;2.03;;;9.40;1.00;;;;;;5133978;27;20413;-69
2024/03/10 07:07:04;;;;;;;2.87;1.87;;;9.50;1.00;;;;;;5134064;27;20412;-68
2024/03/10 07:09:30;;;;;;;2.60;1.80;;;9.50;1.00;;;;;;5134482;27;20499;-69
2024/03/10 07:11:55;;;;;;;2.00;1.70;;;9.50;1.00;;;;;;5134031;27;20405;-69
2024/03/10 07:14:21;;;;;;;2.30;1.70;;;9.50;1.00;;;;;;5134052;27;20179;-69
2024/03/10 07:16:49;;;;;;;2.07;1.80;;;9.60;1.00;;;;;;5132998;27;20654;-69
2024/03/10 07:19:18;;;;;;;2.33;1.90;;;9.70;1.00;;;;;;5133309;27;20286;-68
2024/03/10 07:21:44;;;;;;;3.27;2.77;;;9.80;1.00;;;;;;5114563;27;20918;-67
2024/03/10 07:24:10;;;;;;;5.23;3.87;;;9.70;1.00;;;;;;5132874;27;20409;-69
2024/03/10 07:26:36;;;;;;;5.10;3.70;;;9.70;1.00;;;;;;5133092;27;20412;-68
2024/03/10 07:29:01;;;;;;;2.80;2.27;;;9.50;1.00;;;;;;5133034;27;20172;-69
2024/03/10 07:31:27;;;;;;;2.90;2.47;;;9.30;1.00;;;;;;5132497;27;20187;-69
2024/03/10 07:33:53;;;;;;;2.60;2.30;;;9.40;1.00;;;;;;5137257;22;20227;-67
2024/03/10 07:36:19;;;;;;;3.63;2.33;;;9.50;1.00;;;;;;5111928;28;20179;-67
2024/03/10 07:38:46;;;;;;;3.43;2.90;;;9.50;1.00;;;;;;5112384;27;20505;-71
2024/03/10 07:41:11;;;;;;;6.93;2.40;;;9.60;1.00;;;;;;5113404;27;20999;-69
2024/03/10 07:43:37;;;;;;;3.37;2.40;;;9.70;1.00;;;;;;5112189;28;20505;-71
2024/03/10 07:46:05;;;;;;;3.40;3.07;;;9.80;1.00;;;;;;5112205;28;20199;-70
2024/03/10 07:48:32;;;;;;;4.53;2.50;;;10.10;1.00;;;;;;5112203;28;20414;-69
2024/03/10 07:50:58;;;;;;;3.73;3.00;;;10.10;1.00;;;;;;5112102;28;20904;-68
2024/03/10 07:53:23;;;;;;;3.73;3.33;;;10.40;1.00;;;;;;5110659;28;20507;-69
2024/03/10 07:55:49;;;;;;;7.47;5.47;;;10.50;1.00;;;;;;5112162;28;20406;-69
2024/03/10 07:58:15;;;;;;;4.23;3.07;;;10.70;1.00;;;;;;5133041;27;20168;-70
2024/03/10 08:00:42;;;;;;;3.43;2.87;;;10.80;1.00;;;;;;5107019;27;20193;-68
2024/03/10 08:03:09;;;;;;;5.13;3.93;;;10.90;1.00;;;;;;5087301;28;20956;-68
2024/03/10 08:05:34;;;;;;;5.93;3.70;;;11.10;1.00;;;;;;5087418;28;20411;-68
2024/03/10 08:08:01;;;;;;;4.10;3.03;;;11.40;1.00;;;;;;5125700;27;20424;-69
2024/03/10 08:10:27;;;;;;;3.90;3.53;;;11.50;1.00;;;;;;5125734;27;20476;-67
2024/03/10 08:12:55;;;;;;;3.30;2.90;;;11.20;1.00;;;;;;5128157;27;20495;-69
2024/03/10 08:15:21;;;;;;;4.60;4.20;;;11.20;1.00;;;;;;5127472;27;20861;-69
2024/03/10 08:17:47;;;;;;;4.20;3.10;;;11.40;1.00;;;;;;5111704;27;20517;-68
2024/03/10 08:20:17;;;;;;;2.93;2.60;;;11.60;1.00;;;;;;5087962;28;20473;-68
2024/03/10 08:22:43;;;;;;;6.47;4.63;;;11.20;1.00;;;;;;5088888;28;20250;-68
2024/03/10 08:25:09;;;;;;;4.37;3.10;;;10.90;1.00;;;;;;5092739;28;20415;-68
2024/03/10 08:27:35;;;;;;;4.07;3.03;;;10.80;1.00;;;;;;5120693;28;20428;-70
2024/03/10 08:30:09;;;;;;;3.17;2.63;;;10.80;1.00;;;;;;5129153;28;20426;-70
2024/03/10 08:32:36;;;;;;;3.63;3.30;;;11.00;1.00;;;;;;5129707;27;20471;-69
2024/03/10 08:35:07;;;;;;;3.90;2.83;;;11.10;1.00;;;;;;5129250;27;20447;-69
2024/03/10 08:37:33;;;;;;;3.40;2.40;;;11.00;1.00;;;;;;5128124;27;20437;-69
2024/03/10 08:40:00;;;;;;;3.17;2.43;;;10.70;1.00;;;;;;5116239;28;20458;-71
2024/03/10 08:42:27;;;;;;;3.57;3.27;;;10.80;1.00;;;;;;5108307;28;20427;-69
2024/03/10 08:44:53;;;;;;;2.73;2.30;;;10.80;1.00;;;;;;5107432;28;20410;-70
2024/03/10 08:47:19;;;;;;;3.03;2.73;;;11.00;1.00;;;;;;5120831;27;20440;-70
2024/03/10 08:49:44;;;;;;;3.70;3.20;;;10.90;1.00;;;;;;5092515;27;20189;-69
2024/03/10 08:52:12;;;;;;;2.83;2.30;;;11.00;1.00;;;;;;5125682;27;20227;-69
2024/03/10 08:54:38;;;;;;;3.10;2.47;;;10.90;1.00;;;;;;5127213;27;20242;-69
2024/03/10 08:57:09;;;;;;;3.63;2.87;;;11.00;1.00;;;;;;5117374;27;20420;-70
2024/03/10 08:59:34;;;;;;;4.03;2.73;;;11.20;1.00;;;;;;5132617;27;20193;-69
2024/03/10 09:02:01;;;;;;;3.77;2.80;;;11.40;1.00;;;;;;5132279;27;20421;-68
2024/03/10 09:04:27;;;;;;;4.00;3.20;;;11.40;1.00;;;;;;5132660;27;20184;-69
2024/03/10 09:06:54;;;;;;;3.50;3.07;;;11.40;1.00;;;;;;5125173;27;20688;-69
2024/03/10 09:09:22;;;;;;;3.40;2.50;;;11.60;1.00;;;;;;5112496;27;20188;-69
2024/03/10 09:11:48;;;;;;;3.57;2.70;;;11.90;1.00;;;;;;5111922;28;20430;-70
2024/03/10 09:14:14;;;;;;;4.97;3.37;;;12.00;1.00;;;;;;5112603;28;20941;-70
2024/03/10 09:16:43;;;;;;;5.27;3.73;;;12.00;1.00;;;;;;5118085;27;20464;-69
2024/03/10 09:19:09;;;;;;;4.00;3.30;;;12.40;1.00;;;;;;5131489;27;20612;-70
2024/03/10 09:21:36;;;;;;;6.20;4.00;;;12.60;1.00;;;;;;5122134;27;20787;-70
2024/03/10 09:24:02;;;;;;;4.03;3.63;;;12.80;1.00;;;;;;5110971;28;20431;-70
2024/03/10 09:26:28;;;;;;;3.83;3.43;;;12.90;1.00;;;;;;5096612;28;20421;-70
2024/03/10 09:28:55;;;;;;;4.70;3.33;;;13.20;1.00;;;;;;5091506;28;20478;-70
2024/03/10 09:31:23;;;;;;;3.37;2.73;;;13.20;1.00;;;;;;5105943;27;20187;-70
2024/03/10 09:33:49;;;;;;;4.00;3.60;;;13.30;1.00;;;;;;5131324;27;20466;-71
2024/03/10 09:36:16;;;;;;;3.47;3.00;;;13.60;1.00;;;;;;5123050;27;20433;-71
2024/03/10 09:38:44;;;;;;;3.67;3.27;;;13.70;1.00;;;;;;5100075;28;20465;-70
2024/03/10 09:41:11;;;;;;;3.33;3.00;;;13.80;1.00;;;;;;5112763;27;20443;-71
2024/03/10 09:43:38;;;;;;;4.37;3.30;;;13.80;1.00;;;;;;5114454;28;20436;-70
2024/03/10 09:46:10;;;;;;;3.80;2.80;;;13.60;1.00;;;;;;5121029;27;20420;-71
2024/03/10 09:48:36;;;;;;;3.33;2.80;;;13.60;1.00;;;;;;5112310;28;20523;-71
2024/03/10 09:51:03;;;;;;;3.40;3.10;;;13.40;1.00;;;;;;5105534;27;20442;-71
2024/03/10 09:53:29;;;;;;;5.17;3.00;;;13.50;1.00;;;;;;5099709;27;20441;-72
2024/03/10 09:55:55;;;;;;;4.13;2.80;;;13.50;1.00;;;;;;5114503;28;20418;-72
2024/03/10 09:58:30;;;;;;;3.90;3.60;;;13.40;1.00;;;;;;5106723;27;20935;-72
2024/03/10 10:00:57;;;;;;;3.30;2.67;;;13.40;1.00;;;;;;5114321;27;20439;-71
2024/03/10 10:03:24;;;;;;;3.60;2.93;;;13.50;1.00;;;;;;5101086;27;20453;-71
2024/03/10 10:05:57;;;;;;;3.53;3.23;;;13.60;1.00;;;;;;5104155;28;20426;-71
2024/03/10 10:08:23;;;;;;;3.53;3.23;;;13.60;1.00;;;;;;5107442;28;20433;-71
2024/03/10 10:10:49;;;;;;;4.50;3.10;;;13.70;1.00;;;;;;5107102;27;20952;-72
2024/03/10 10:13:27;;;;;;;3.80;3.00;;;13.70;1.00;;;;;;5106006;28;20198;-72
2024/03/10 10:15:55;;;;;;;5.57;3.37;;;13.70;1.00;;;;;;5113791;27;20505;-71
2024/03/10 10:18:22;;;;;;;3.23;2.73;;;13.60;1.00;;;;;;5113563;28;20414;-72
2024/03/10 10:20:52;;;;;;;4.30;3.43;;;13.80;1.00;;;;;;5110529;28;20781;-71
2024/03/10 10:23:23;;;;;;;6.43;3.07;;;13.90;1.00;;;;;;5113850;27;20530;-72
2024/03/10 10:25:52;;;;;;;3.50;3.03;;;13.90;1.00;;;;;;5113640;27;20413;-72
2024/03/10 10:28:19;;;;;;;4.00;3.33;;;13.80;1.00;;;;;;5104426;28;20439;-71
2024/03/10 10:30:44;;;;;;;3.67;3.00;;;13.70;1.00;;;;;;5101394;28;20847;-72
2024/03/10 10:33:12;;;;;;;3.37;3.07;;;13.70;1.00;;;;;;5104084;27;20466;-70
2024/03/10 10:35:42;;;;;;;3.87;3.40;;;13.90;1.00;;;;;;5100814;28;20238;-70
2024/03/10 10:38:12;;;;;;;3.50;2.63;;;14.40;1.00;;;;;;5108228;28;20415;-72
2024/03/10 10:40:44;;;;;;;4.33;3.60;;;14.50;1.00;;;;;;5105718;28;20427;-72
2024/03/10 10:43:12;;;;;;;3.93;3.53;;;14.70;1.00;;;;;;5115574;27;20441;-72
2024/03/10 10:45:38;;;;;;;5.70;2.90;;;14.80;1.00;;;;;;5120106;27;20418;-72
2024/03/10 10:48:07;;;;;;;3.73;3.17;;;14.50;1.00;;;;;;5113745;28;20900;-72
2024/03/10 10:50:37;;;;;;;3.83;3.17;;;14.60;1.00;;;;;;5113593;28;20433;-71
2024/03/10 10:53:06;;;;;;;3.47;2.90;;;14.70;1.00;;;;;;5128270;27;20438;-71
2024/03/10 10:55:33;;;;;;;3.50;3.20;;;14.70;1.00;;;;;;5133938;27;20778;-67
2024/03/10 10:58:21;;;;;;;3.37;2.53;;;14.60;1.00;;;;;;5132286;27;20434;-68
2024/03/10 11:00:53;;;;;;;4.67;3.10;;;14.80;1.00;;;;;;5113439;28;20425;-71
2024/03/10 11:03:24;;;;;;;3.60;3.30;;;14.80;1.00;;;;;;5113359;28;20461;-70
2024/03/10 11:06:02;;;;;;;4.10;3.70;;;14.70;1.00;;;;;;5113628;28;20788;-72
2024/03/10 11:08:32;;;;;;;3.20;2.67;;;14.80;1.00;;;;;;5117805;27;20405;-71
2024/03/10 11:10:57;;;;;;;3.23;2.90;;;14.50;1.00;;;;;;5132926;27;20918;-71
2024/03/10 11:13:23;;;;;;;4.03;2.97;;;14.50;1.00;;;;;;5133506;27;20424;-71
2024/03/10 11:16:09;;;;;;;3.63;2.63;;;14.60;1.00;;;;;;5131931;27;20171;-71
2024/03/10 11:18:39;;;;;;;4.13;3.10;;;14.70;1.00;;;;;;5113378;28;20208;-71
2024/03/10 11:21:13;;;;;;;3.90;3.13;;;14.60;1.00;;;;;;5112962;28;20409;-72
2024/03/10 11:23:43;;;;;;;3.27;2.97;;;14.50;1.00;;;;;;5112819;28;20486;-72
2024/03/10 11:26:12;;;;;;;5.63;3.17;;;14.50;1.00;;;;;;5112601;28;20985;-71
2024/03/10 11:29:25;;;;;;;5.93;2.87;;;14.30;1.00;;;;;;5130066;27;20504;-70
2024/03/10 11:31:52;;;;;;;5.27;3.40;;;14.40;1.00;;;;;;5110760;28;20430;-71
2024/03/10 11:34:19;;;;;;;4.47;3.30;;;14.40;1.00;;;;;;5130763;27;20445;-71
2024/03/10 11:36:46;;;;;;;6.30;2.70;;;14.60;1.00;;;;;;5124051;27;20496;-71
2024/03/10 11:39:19;;;;;;;3.63;2.37;;;14.60;1.00;;;;;;5114761;28;20453;-71
2024/03/10 11:41:49;;;;;;;3.33;2.80;;;14.50;1.00;;;;;;5114696;28;20433;-71
2024/03/10 11:44:19;;;;;;;2.60;2.40;;;14.30;1.00;;;;;;5114177;28;20490;-71
2024/03/10 11:46:44;;;;;;;2.77;2.40;;;14.30;1.00;;;;;;5113747;28;20411;-72
2024/03/10 11:49:13;;;;;;;4.50;3.03;;;14.40;1.00;;;;;;5113186;28;20402;-71
2024/03/10 11:51:39;;;;;;;3.33;3.07;;;14.50;1.00;;;;;;5111733;28;20221;-71
2024/03/10 11:54:10;;;;;;;4.07;2.80;;;14.60;1.00;;;;;;5112361;28;20437;-71
2024/03/10 11:56:35;;;;;;;4.80;2.70;;;14.90;1.00;;;;;;5112221;28;20413;-71
2024/03/10 11:59:03;;;;;;;2.67;2.47;;;14.90;1.00;;;;;;5112339;28;20460;-71
2024/03/10 12:01:30;;;;;;;3.13;2.73;;;15.00;1.00;;;;;;5118805;27;20195;-71
2024/03/10 12:03:57;;;;;;;3.20;2.90;;;15.00;1.00;;;;;;5132558;27;20441;-71
2024/03/10 12:06:26;;;;;;;3.00;2.67;;;15.10;1.00;;;;;;5132267;27;20466;-71
2024/03/10 12:08:51;;;;;;;4.00;2.80;;;15.00;1.00;;;;;;5132901;27;20416;-71
2024/03/10 12:11:23;;;;;;;4.47;2.60;;;14.70;1.00;;;;;;5127902;27;20967;-71
2024/03/10 12:13:52;;;;;;;3.83;2.90;;;14.70;1.00;;;;;;5111888;28;20196;-71
2024/03/10 12:16:20;;;;;;;3.70;2.93;;;14.40;1.00;;;;;;5112124;28;20797;-71
2024/03/10 12:18:46;;;;;;;3.73;2.20;;;14.50;1.00;;;;;;5112025;28;20454;-71
2024/03/10 12:21:18;;;;;;;4.07;3.20;;;14.40;1.00;;;;;;5118362;27;20408;-71
2024/03/10 12:23:46;;;;;;;3.00;2.70;;;14.30;1.00;;;;;;5118689;27;20429;-72
2024/03/10 12:26:14;;;;;;;4.07;2.53;;;14.20;1.00;;;;;;5118932;28;20422;-71
2024/03/10 12:28:46;;;;;;;3.00;2.73;;;14.20;1.00;;;;;;5124350;27;20421;-71
2024/03/10 12:31:14;;;;;;;3.03;2.73;;;14.20;1.00;;;;;;5119110;27;20414;-71
2024/03/10 12:33:40;;;;;;;12.77;8.40;;;14.30;1.00;;;;;;5119338;27;20454;-71
2024/03/10 12:36:09;;;;;;;5.07;3.70;;;14.50;1.00;;;;;;5117499;27;20426;-71
2024/03/10 12:38:40;;;;;;;3.90;3.03;;;14.80;1.00;;;;;;5118621;27;20873;-71
2024/03/10 12:41:10;;;;;;;3.30;3.00;;;15.00;1.00;;;;;;5118774;28;20525;-71
2024/03/10 12:43:39;;;;;;;3.10;2.53;;;15.10;1.00;;;;;;5118896;27;20902;-70
2024/03/10 12:46:06;;;;;;;3.33;3.03;;;15.30;1.00;;;;;;5118660;27;20949;-71
2024/03/10 12:48:31;;;;;;;3.83;2.90;;;15.30;1.00;;;;;;5118789;28;20771;-69
2024/03/10 12:50:57;;;;;;;7.93;4.73;;;15.40;1.00;;;;;;5118625;28;20407;-71
2024/03/10 12:53:23;;;;;;;3.03;2.63;;;14.90;1.00;;;;;;5120032;28;20188;-71
2024/03/10 12:55:50;;;;;;;3.40;3.00;;;14.90;1.00;;;;;;5119143;27;20200;-71
2024/03/10 12:58:16;;;;;;;4.53;2.77;;;14.90;1.00;;;;;;5119303;27;20405;-71
2024/03/10 13:00:42;;;;;;;4.23;2.63;;;14.90;1.00;;;;;;5118663;28;20450;-71
2024/03/10 13:03:08;;;;;;;2.70;2.50;;;14.70;1.00;;;;;;5114328;27;21073;-68
2024/03/10 13:05:34;;;;;;;3.40;2.87;;;14.60;1.00;;;;;;5122308;27;20179;-76
2024/03/10 13:08:00;;;;;;;4.47;2.73;;;14.60;1.00;;;;;;5122495;27;20418;-69
2024/03/10 13:10:28;;;;;;;4.07;3.00;;;14.40;1.00;;;;;;5117942;28;20177;-68
2024/03/10 13:12:55;;;;;;;2.80;2.40;;;14.30;1.00;;;;;;5118394;27;20426;-68
2024/03/10 13:15:21;;;;;;;4.00;3.13;;;14.30;1.00;;;;;;5118203;28;20413;-68
2024/03/10 13:17:47;;;;;;;4.80;2.63;;;14.30;1.00;;;;;;5132515;27;20432;-68
2024/03/10 13:20:16;;;;;;;3.80;2.97;;;14.10;1.00;;;;;;5138397;27;20461;-68
2024/03/10 13:22:43;;;;;;;3.13;2.50;;;14.00;1.00;;;;;;5103129;27;20652;-68